Time;durP1;ratioP1;P1;durP2;ratioP2;P2;SDS_P1;SDS_P2;PMS_P1;PMS_P2;Temp;Humidity;BMP_temperature;BMP_pressure;BME280_temperature;BME280_humidity;BME280_pressure;Samples;Min_cycle;Max_cycle;Signal;HPM_P1;HPM_P2
2023/07/17 00:01:33;;;;;;;7.57;2.53;;;21.00;98.30;;;;;;4974865;28;20030;-73
2023/07/17 00:03:58;;;;;;;5.47;1.92;;;21.00;98.30;;;;;;4974563;28;20085;-73
2023/07/17 00:06:24;;;;;;;6.80;2.15;;;20.90;98.30;;;;;;4989381;28;20070;-73
2023/07/17 00:08:50;;;;;;;6.72;2.33;;;20.90;98.40;;;;;;4974609;28;20497;-76
2023/07/17 00:11:15;;;;;;;3.97;2.30;;;20.80;98.50;;;;;;4980293;28;20031;-76
2023/07/17 00:13:41;;;;;;;3.15;2.03;;;20.80;98.60;;;;;;4973130;28;20089;-75
2023/07/17 00:16:07;;;;;;;3.75;1.98;;;20.80;98.70;;;;;;4974038;28;20085;-76
2023/07/17 00:18:34;;;;;;;5.30;2.20;;;20.70;98.70;;;;;;4975820;28;20097;-76
2023/07/17 00:21:01;;;;;;;6.40;2.28;;;20.70;98.70;;;;;;4981430;28;20073;-76
2023/07/17 00:23:26;;;;;;;3.33;1.95;;;20.60;98.70;;;;;;4979819;28;20031;-75
2023/07/17 00:25:52;;;;;;;3.28;1.67;;;20.60;98.80;;;;;;4974373;28;20050;-75
2023/07/17 00:28:18;;;;;;;7.20;2.10;;;20.50;98.80;;;;;;4972428;28;20081;-75
2023/07/17 00:30:44;;;;;;;3.65;2.08;;;20.50;98.90;;;;;;4974310;28;20023;-75
2023/07/17 00:33:09;;;;;;;5.03;2.28;;;20.40;99.00;;;;;;4975269;28;20073;-76
2023/07/17 00:35:35;;;;;;;4.53;2.00;;;20.50;99.20;;;;;;4973936;28;20106;-76
2023/07/17 00:38:01;;;;;;;3.90;2.03;;;20.40;99.30;;;;;;4982453;28;20038;-76
2023/07/17 00:40:27;;;;;;;4.50;2.10;;;20.40;99.40;;;;;;4974415;28;20058;-76
2023/07/17 00:42:59;;;;;;;4.00;2.28;;;20.40;99.50;;;;;;4974202;28;20023;-73
2023/07/17 00:45:27;;;;;;;6.22;2.13;;;20.40;99.60;;;;;;4973188;28;20078;-73
2023/07/17 00:47:53;;;;;;;4.05;2.03;;;20.40;99.60;;;;;;4974391;28;20053;-75
2023/07/17 00:50:18;;;;;;;4.97;2.00;;;20.40;99.70;;;;;;4974356;28;20026;-75
2023/07/17 00:52:44;;;;;;;4.50;1.83;;;20.40;99.70;;;;;;4988816;28;20050;-74
2023/07/17 00:55:12;;;;;;;3.88;1.88;;;20.30;99.80;;;;;;4973938;28;20511;-74
2023/07/17 00:57:39;;;;;;;6.65;2.03;;;20.30;99.80;;;;;;4973230;28;20027;-74
2023/07/17 01:00:08;;;;;;;5.18;2.15;;;20.30;99.80;;;;;;4973927;28;20019;-74
2023/07/17 01:02:34;;;;;;;4.60;2.17;;;20.30;99.90;;;;;;4973759;28;20029;-74
2023/07/17 01:04:59;;;;;;;5.53;2.20;;;20.30;99.90;;;;;;4972793;28;20023;-74
2023/07/17 01:07:25;;;;;;;5.93;2.42;;;20.30;99.90;;;;;;4974100;28;20030;-75
2023/07/17 01:09:52;;;;;;;3.58;1.92;;;20.20;99.90;;;;;;4972530;28;20413;-75
2023/07/17 01:12:18;;;;;;;4.28;2.08;;;20.20;99.90;;;;;;4973646;28;20142;-75
2023/07/17 01:14:43;;;;;;;6.03;2.13;;;20.20;99.90;;;;;;4973800;28;20031;-75
2023/07/17 01:17:09;;;;;;;4.93;2.13;;;20.20;99.90;;;;;;4973876;28;20109;-75
2023/07/17 01:19:34;;;;;;;4.60;1.88;;;20.20;99.90;;;;;;4973839;28;20482;-75
2023/07/17 01:22:04;;;;;;;4.47;1.92;;;20.20;99.90;;;;;;4973437;28;20097;-75
2023/07/17 01:27:00;;;;;;;6.68;2.85;;;20.10;99.90;;;;;;5004776;28;20432;-74
2023/07/17 01:29:25;;;;;;;5.05;2.20;;;20.10;99.90;;;;;;5009909;28;20088;-74
2023/07/17 01:31:51;;;;;;;6.05;2.42;;;20.10;99.90;;;;;;5010175;28;20018;-74
2023/07/17 01:34:16;;;;;;;5.30;2.25;;;20.00;99.90;;;;;;5002251;28;20407;-74
2023/07/17 01:36:42;;;;;;;5.40;2.25;;;20.00;99.90;;;;;;5001337;28;20026;-75
2023/07/17 01:39:07;;;;;;;5.38;1.95;;;20.00;99.90;;;;;;4994645;28;20022;-74
2023/07/17 01:41:33;;;;;;;2.65;1.90;;;20.00;99.90;;;;;;5008583;28;20097;-75
2023/07/17 01:43:59;;;;;;;5.97;2.25;;;20.00;99.90;;;;;;5013299;28;20025;-74
2023/07/17 01:46:24;;;;;;;3.65;2.05;;;20.00;99.90;;;;;;5015045;28;20058;-74
2023/07/17 01:48:50;;;;;;;4.70;2.47;;;20.00;99.90;;;;;;5015695;28;20406;-73
2023/07/17 01:51:16;;;;;;;4.68;2.17;;;20.00;99.90;;;;;;5012726;28;20030;-75
2023/07/17 01:53:41;;;;;;;3.83;2.10;;;20.00;99.90;;;;;;5009164;28;20033;-74
2023/07/17 01:56:07;;;;;;;3.80;2.30;;;20.00;99.90;;;;;;5007238;28;20104;-75
2023/07/17 01:58:33;;;;;;;6.13;2.00;;;20.00;99.90;;;;;;4996201;28;20022;-75
2023/07/17 02:00:58;;;;;;;4.43;2.28;;;20.00;99.90;;;;;;5008651;28;20499;-74
2023/07/17 02:03:24;;;;;;;5.05;2.38;;;19.90;99.90;;;;;;5008499;28;20161;-73
2023/07/17 02:05:50;;;;;;;3.42;1.50;;;19.90;99.90;;;;;;5005605;28;20038;-74
2023/07/17 02:08:16;;;;;;;4.03;2.15;;;19.90;99.90;;;;;;4992260;28;20119;-74
2023/07/17 02:10:49;;;;;;;4.78;1.83;;;19.90;99.90;;;;;;5010983;28;20392;-74
2023/07/17 02:13:14;;;;;;;3.08;2.05;;;19.90;99.90;;;;;;5007763;28;20084;-73
2023/07/17 02:15:40;;;;;;;3.83;2.28;;;19.90;99.90;;;;;;5011718;28;20042;-75
2023/07/17 02:18:06;;;;;;;3.97;2.00;;;19.80;99.90;;;;;;5006107;28;20026;-75
2023/07/17 02:20:32;;;;;;;3.95;1.67;;;19.80;99.90;;;;;;4997663;28;20044;-73
2023/07/17 02:22:57;;;;;;;6.53;2.20;;;19.90;99.90;;;;;;5009524;28;20026;-75
2023/07/17 02:25:23;;;;;;;5.55;2.17;;;19.90;99.90;;;;;;5009905;28;20033;-75
2023/07/17 02:27:49;;;;;;;4.45;2.30;;;19.90;99.90;;;;;;5007436;28;20032;-74
2023/07/17 02:30:14;;;;;;;5.60;2.35;;;19.90;99.90;;;;;;5007502;28;20496;-73
2023/07/17 02:32:40;;;;;;;3.38;2.03;;;19.90;99.90;;;;;;4996921;28;20054;-76
2023/07/17 02:35:06;;;;;;;4.03;1.98;;;19.80;99.90;;;;;;5011680;28;20502;-75
2023/07/17 02:37:31;;;;;;;3.53;1.92;;;19.90;99.90;;;;;;4994385;28;20030;-76
2023/07/17 02:39:57;;;;;;;5.68;2.40;;;19.90;99.90;;;;;;5011524;28;20057;-76
2023/07/17 02:42:22;;;;;;;5.10;1.95;;;19.80;99.90;;;;;;5014210;28;20018;-75
2023/07/17 02:44:48;;;;;;;6.28;2.17;;;19.80;99.90;;;;;;5015576;28;20022;-76
2023/07/17 02:47:15;;;;;;;3.20;1.58;;;19.80;99.90;;;;;;5015389;28;20022;-75
2023/07/17 02:49:41;;;;;;;6.60;2.90;;;19.80;99.90;;;;;;5013956;28;20041;-76
2023/07/17 02:52:08;;;;;;;4.72;2.20;;;19.80;99.90;;;;;;5022144;28;20136;-76
2023/07/17 02:54:36;;;;;;;3.83;2.15;;;19.70;99.90;;;;;;5012058;28;20032;-75
2023/07/17 02:57:05;;;;;;;2.35;1.73;;;19.80;99.90;;;;;;5011627;28;20018;-76
2023/07/17 02:59:31;;;;;;;4.82;1.92;;;19.70;99.90;;;;;;5015073;28;20029;-74
2023/07/17 03:01:57;;;;;;;5.28;2.33;;;19.70;99.90;;;;;;4997239;28;20481;-75
2023/07/17 03:04:24;;;;;;;5.22;2.03;;;19.70;99.90;;;;;;5000171;28;20032;-75
2023/07/17 03:06:50;;;;;;;6.18;2.25;;;19.70;99.90;;;;;;5014861;28;20032;-76
2023/07/17 03:09:15;;;;;;;3.85;2.22;;;19.60;99.90;;;;;;5010811;28;20119;-76
2023/07/17 03:11:41;;;;;;;4.65;1.80;;;19.60;99.90;;;;;;5014528;28;20022;-76
2023/07/17 03:14:06;;;;;;;5.72;2.08;;;19.70;99.90;;;;;;5015119;28;20033;-76
2023/07/17 03:16:32;;;;;;;4.25;1.80;;;19.70;99.90;;;;;;5014938;28;20033;-75
2023/07/17 03:18:58;;;;;;;7.00;2.08;;;19.70;99.90;;;;;;5015170;28;20026;-74
2023/07/17 03:21:23;;;;;;;3.95;2.00;;;19.60;99.90;;;;;;5015497;28;20026;-74
2023/07/17 03:23:49;;;;;;;10.20;2.97;;;19.70;99.90;;;;;;5015141;28;20076;-75
2023/07/17 03:26:15;;;;;;;5.18;1.88;;;19.60;99.90;;;;;;5015380;28;20530;-75
2023/07/17 03:28:40;;;;;;;4.80;2.30;;;19.70;99.90;;;;;;5015039;28;20026;-74
2023/07/17 03:31:07;;;;;;;5.03;2.35;;;19.60;99.90;;;;;;5016674;28;20021;-74
2023/07/17 03:33:33;;;;;;;5.35;1.92;;;19.70;99.90;;;;;;5014620;28;20033;-74
2023/07/17 03:35:59;;;;;;;3.75;1.83;;;19.70;99.90;;;;;;5002889;28;20066;-74
2023/07/17 03:38:25;;;;;;;5.93;2.10;;;19.60;99.90;;;;;;5005061;28;20064;-75
2023/07/17 03:40:50;;;;;;;4.93;2.00;;;19.60;99.90;;;;;;5012096;28;20034;-74
2023/07/17 03:43:16;;;;;;;8.02;2.30;;;19.60;99.90;;;;;;5010649;28;20101;-75
2023/07/17 03:45:41;;;;;;;4.22;2.08;;;19.60;99.90;;;;;;5010345;28;20130;-74
2023/07/17 03:48:07;;;;;;;4.50;2.75;;;19.50;99.90;;;;;;5013894;28;20036;-74
2023/07/17 03:50:33;;;;;;;5.38;2.13;;;19.60;99.90;;;;;;5017928;28;20029;-74
2023/07/17 03:52:58;;;;;;;4.40;2.20;;;19.60;99.90;;;;;;4998280;28;20045;-74
2023/07/17 03:55:24;;;;;;;5.78;2.15;;;19.50;99.90;;;;;;5006846;28;20130;-72
2023/07/17 03:57:49;;;;;;;4.40;2.40;;;19.50;99.90;;;;;;5006563;28;20042;-74
2023/07/17 04:00:15;;;;;;;5.75;2.65;;;19.50;99.90;;;;;;5011531;28;20045;-74
2023/07/17 04:02:42;;;;;;;4.53;2.10;;;19.50;99.90;;;;;;5007633;28;20024;-75
2023/07/17 04:05:07;;;;;;;5.10;2.22;;;19.40;99.90;;;;;;4991224;28;20032;-74
2023/07/17 04:07:33;;;;;;;3.53;2.33;;;19.40;99.90;;;;;;5008921;28;20030;-75
2023/07/17 04:09:59;;;;;;;4.95;2.15;;;19.40;99.90;;;;;;5014345;28;20029;-75
2023/07/17 04:12:24;;;;;;;4.43;1.90;;;19.40;99.90;;;;;;5010798;28;20040;-75
2023/07/17 04:14:50;;;;;;;4.53;1.77;;;19.40;99.90;;;;;;5014360;28;20033;-75
2023/07/17 04:17:15;;;;;;;5.72;2.10;;;19.30;99.90;;;;;;5008087;28;20046;-75
2023/07/17 04:19:41;;;;;;;5.25;2.22;;;19.40;99.90;;;;;;5007784;28;20747;-74
2023/07/17 04:22:07;;;;;;;3.88;2.20;;;19.40;99.90;;;;;;5012508;28;20021;-75
2023/07/17 04:24:33;;;;;;;9.30;2.58;;;19.40;99.90;;;;;;5005104;28;20030;-75
2023/07/17 04:26:59;;;;;;;9.15;2.13;;;19.40;99.90;;;;;;5010720;28;20036;-76
2023/07/17 04:29:24;;;;;;;7.68;2.85;;;19.40;99.90;;;;;;5010445;28;20026;-74
2023/07/17 04:31:50;;;;;;;6.47;2.08;;;19.50;99.90;;;;;;5011219;28;20025;-74
2023/07/17 04:34:16;;;;;;;5.15;2.10;;;19.40;99.90;;;;;;4994170;28;20022;-77
2023/07/17 04:36:42;;;;;;;6.60;2.25;;;19.50;99.90;;;;;;5010495;28;20026;-74
2023/07/17 04:39:08;;;;;;;10.13;2.50;;;19.50;99.90;;;;;;4992037;28;20087;-77
2023/07/17 04:41:33;;;;;;;5.90;2.22;;;19.50;99.90;;;;;;5004192;28;20022;-76
2023/07/17 04:43:59;;;;;;;3.60;2.05;;;19.50;99.90;;;;;;5009714;28;20034;-77
2023/07/17 04:46:25;;;;;;;4.75;2.60;;;19.50;99.90;;;;;;5007042;28;20038;-74
2023/07/17 04:48:51;;;;;;;4.90;2.10;;;19.60;99.90;;;;;;5010158;28;20510;-75
2023/07/17 04:51:16;;;;;;;5.72;2.50;;;19.60;99.90;;;;;;5012519;28;20088;-74
2023/07/17 04:53:42;;;;;;;5.72;2.35;;;19.50;99.90;;;;;;5008487;28;20026;-75
2023/07/17 04:56:07;;;;;;;6.78;2.13;;;19.60;99.90;;;;;;5008295;28;20439;-75
2023/07/17 04:58:33;;;;;;;4.10;2.17;;;19.60;99.90;;;;;;4997509;28;20025;-75
2023/07/17 05:01:03;;;;;;;6.05;2.72;;;19.60;99.90;;;;;;5001206;28;20049;-76
2023/07/17 05:03:29;;;;;;;4.60;2.40;;;19.60;99.90;;;;;;5033015;28;20018;-75
2023/07/17 05:05:55;;;;;;;4.60;2.70;;;19.60;99.90;;;;;;5003798;28;20021;-75
2023/07/17 05:08:21;;;;;;;4.05;2.45;;;19.60;99.90;;;;;;4995496;28;20034;-75
2023/07/17 05:10:58;;;;;;;4.18;2.30;;;19.70;99.90;;;;;;5012822;28;20030;-75
2023/07/17 05:13:24;;;;;;;4.05;2.40;;;19.70;99.90;;;;;;5016153;28;20102;-75
2023/07/17 05:15:50;;;;;;;3.75;1.90;;;19.80;99.90;;;;;;4995816;28;20617;-75
2023/07/17 05:18:16;;;;;;;6.03;2.67;;;19.90;99.90;;;;;;5011827;28;20034;-74
2023/07/17 05:20:45;;;;;;;7.15;2.80;;;19.90;99.90;;;;;;5011909;28;20053;-74
2023/07/17 05:23:11;;;;;;;11.60;3.42;;;20.00;99.90;;;;;;5010467;28;20037;-74
2023/07/17 05:25:37;;;;;;;8.63;3.40;;;20.10;99.90;;;;;;5009508;28;20034;-74
2023/07/17 05:28:04;;;;;;;9.35;3.45;;;20.20;99.90;;;;;;5009081;28;20029;-72
2023/07/17 05:30:36;;;;;;;10.40;3.50;;;20.30;99.90;;;;;;4988397;28;20511;-76
2023/07/17 05:33:02;;;;;;;5.85;2.65;;;20.30;99.90;;;;;;4995112;28;20113;-73
2023/07/17 05:35:29;;;;;;;4.00;2.13;;;20.50;99.90;;;;;;5007253;28;20029;-72
2023/07/17 05:37:54;;;;;;;5.88;2.17;;;20.60;99.90;;;;;;5005129;28;20033;-72
2023/07/17 05:40:20;;;;;;;6.10;2.70;;;20.60;99.90;;;;;;5008991;28;20153;-74
2023/07/17 05:42:46;;;;;;;5.20;2.47;;;20.70;99.90;;;;;;5007045;28;20026;-73
2023/07/17 05:45:11;;;;;;;5.30;2.00;;;20.80;99.90;;;;;;5009136;28;20533;-73
2023/07/17 05:47:38;;;;;;;5.72;2.75;;;20.90;99.90;;;;;;5008245;28;20022;-74
2023/07/17 05:50:04;;;;;;;4.68;2.55;;;21.10;99.90;;;;;;5001947;28;20030;-75
2023/07/17 05:52:30;;;;;;;5.47;2.58;;;21.20;99.90;;;;;;5005503;28;20072;-74
2023/07/17 05:54:56;;;;;;;6.85;2.50;;;21.30;99.90;;;;;;5001895;28;20481;-73
2023/07/17 05:57:21;;;;;;;4.47;2.47;;;21.40;99.90;;;;;;5003928;28;20117;-73
2023/07/17 05:59:47;;;;;;;4.32;2.17;;;21.50;99.90;;;;;;5000442;28;20048;-73
2023/07/17 06:02:13;;;;;;;4.45;1.90;;;21.70;99.90;;;;;;5003041;28;20028;-74
2023/07/17 06:04:38;;;;;;;5.93;2.38;;;21.80;99.90;;;;;;5004873;28;20034;-75
2023/07/17 06:07:04;;;;;;;6.57;2.53;;;22.00;99.50;;;;;;5004410;28;20077;-71
2023/07/17 06:09:30;;;;;;;6.25;2.47;;;22.10;98.40;;;;;;5000491;28;20076;-75
2023/07/17 06:11:56;;;;;;;5.05;2.25;;;22.20;97.90;;;;;;5013458;28;20727;-74
2023/07/17 06:14:22;;;;;;;7.72;2.50;;;22.40;97.40;;;;;;5010380;28;20097;-73
2023/07/17 06:16:47;;;;;;;12.68;2.72;;;22.50;97.30;;;;;;5010139;28;20034;-73
2023/07/17 06:19:13;;;;;;;3.28;2.13;;;22.60;97.20;;;;;;5002783;28;20026;-72
2023/07/17 06:21:39;;;;;;;9.55;2.78;;;22.70;96.60;;;;;;5003658;28;20062;-72
2023/07/17 06:24:07;;;;;;;4.90;2.42;;;22.70;96.30;;;;;;5013169;28;20026;-73
2023/07/17 06:26:33;;;;;;;6.10;2.38;;;22.70;95.90;;;;;;5012794;28;20105;-72
2023/07/17 06:28:59;;;;;;;7.35;2.33;;;22.60;95.60;;;;;;5010757;28;20061;-72
2023/07/17 06:31:25;;;;;;;7.45;2.60;;;22.60;95.70;;;;;;5010990;28;20082;-72
2023/07/17 06:33:50;;;;;;;7.65;2.45;;;22.60;95.80;;;;;;4997679;28;20045;-73
2023/07/17 06:36:16;;;;;;;4.70;2.55;;;22.60;95.80;;;;;;5009759;28;20049;-73
2023/07/17 06:38:41;;;;;;;6.07;2.72;;;22.60;95.50;;;;;;5007476;28;20079;-73
2023/07/17 06:41:07;;;;;;;5.22;2.92;;;22.60;95.30;;;;;;4999014;28;20028;-72
2023/07/17 06:43:33;;;;;;;6.07;2.70;;;22.60;95.20;;;;;;5010161;28;20025;-73
2023/07/17 06:45:58;;;;;;;6.00;2.20;;;22.60;94.80;;;;;;5009666;28;20543;-73
2023/07/17 06:48:24;;;;;;;5.65;2.05;;;22.50;94.50;;;;;;5004028;28;20036;-73
2023/07/17 06:50:50;;;;;;;8.32;2.88;;;22.50;94.70;;;;;;5005494;28;20113;-72
2023/07/17 06:53:16;;;;;;;7.20;2.45;;;22.50;95.30;;;;;;5007871;28;20042;-73
2023/07/17 06:55:41;;;;;;;6.15;2.85;;;22.50;95.30;;;;;;5006382;28;20042;-73
2023/07/17 06:58:07;;;;;;;5.03;2.58;;;22.60;95.20;;;;;;4988851;28;20026;-73
2023/07/17 07:00:33;;;;;;;5.22;2.53;;;22.60;94.90;;;;;;4991259;28;20049;-73
2023/07/17 07:02:58;;;;;;;7.85;2.85;;;22.60;94.50;;;;;;5008481;28;20033;-73
2023/07/17 07:05:24;;;;;;;6.45;3.33;;;22.70;94.40;;;;;;5007920;28;20060;-71
2023/07/17 07:07:50;;;;;;;6.20;2.97;;;22.80;94.30;;;;;;5006336;28;20429;-73
2023/07/17 07:10:16;;;;;;;3.28;2.00;;;22.80;93.70;;;;;;5007740;28;20061;-73
2023/07/17 07:12:41;;;;;;;7.65;2.33;;;22.90;93.60;;;;;;4990127;28;20026;-72
2023/07/17 07:15:08;;;;;;;7.40;2.58;;;22.90;93.70;;;;;;5009306;28;21459;-72
2023/07/17 07:17:33;;;;;;;5.05;2.58;;;23.00;93.60;;;;;;4989168;28;20046;-73
2023/07/17 07:19:59;;;;;;;7.10;2.50;;;23.10;93.50;;;;;;5006179;28;20018;-71
2023/07/17 07:22:24;;;;;;;11.43;3.20;;;23.10;93.20;;;;;;5006118;28;20030;-72
2023/07/17 07:24:50;;;;;;;7.28;2.15;;;23.10;93.00;;;;;;4988210;28;20022;-71
2023/07/17 07:27:15;;;;;;;5.93;2.75;;;23.10;92.60;;;;;;5009966;28;20057;-71
2023/07/17 07:29:41;;;;;;;6.63;3.10;;;23.20;92.60;;;;;;5009268;28;20018;-72
2023/07/17 07:32:07;;;;;;;7.43;3.30;;;23.20;92.40;;;;;;5004847;28;20042;-71
2023/07/17 07:34:32;;;;;;;6.47;3.00;;;23.30;92.00;;;;;;4988641;28;20056;-71
2023/07/17 07:36:58;;;;;;;9.07;2.90;;;23.20;90.80;;;;;;5002701;28;20456;-72
2023/07/17 07:39:24;;;;;;;6.60;3.05;;;23.30;90.90;;;;;;4991338;28;20026;-71
2023/07/17 07:41:49;;;;;;;6.38;2.80;;;23.40;90.80;;;;;;5007505;28;20021;-71
2023/07/17 07:44:15;;;;;;;7.05;3.40;;;23.40;90.70;;;;;;5005226;28;20026;-71
2023/07/17 07:46:40;;;;;;;6.25;3.00;;;23.40;90.10;;;;;;4995517;28;20388;-71
2023/07/17 07:49:06;;;;;;;5.97;3.08;;;23.50;90.30;;;;;;5009596;28;20026;-70
2023/07/17 07:51:32;;;;;;;6.90;2.70;;;23.50;89.90;;;;;;5004606;28;20069;-71
2023/07/17 07:53:57;;;;;;;5.57;3.13;;;23.60;88.70;;;;;;5009171;28;20033;-71
2023/07/17 07:56:23;;;;;;;7.03;3.67;;;23.60;88.70;;;;;;5010727;28;20447;-71
2023/07/17 07:58:49;;;;;;;6.55;3.00;;;23.70;88.70;;;;;;5011435;28;20033;-71
2023/07/17 08:01:15;;;;;;;5.22;3.55;;;23.70;88.40;;;;;;5009443;28;20017;-71
2023/07/17 08:03:40;;;;;;;4.93;3.10;;;23.80;87.60;;;;;;5008539;28;20381;-71
2023/07/17 08:06:06;;;;;;;6.28;3.17;;;23.80;87.70;;;;;;5011925;28;20101;-71
2023/07/17 08:08:32;;;;;;;6.38;3.38;;;23.70;87.80;;;;;;5008913;28;20025;-71
2023/07/17 08:10:58;;;;;;;5.82;3.45;;;23.70;87.20;;;;;;5009023;28;20034;-71
2023/07/17 08:13:23;;;;;;;7.35;3.67;;;23.70;87.20;;;;;;5010787;28;20029;-71
2023/07/17 08:15:49;;;;;;;9.07;3.92;;;23.60;85.30;;;;;;4990347;28;20022;-71
2023/07/17 08:18:16;;;;;;;5.53;3.25;;;23.60;84.90;;;;;;5008359;28;20034;-71
2023/07/17 08:20:42;;;;;;;7.53;3.47;;;23.70;85.00;;;;;;5008706;28;20046;-71
2023/07/17 08:23:08;;;;;;;6.35;3.17;;;23.70;84.30;;;;;;5007569;28;20040;-71
2023/07/17 08:25:33;;;;;;;10.23;3.83;;;23.70;84.50;;;;;;5009164;28;20018;-71
2023/07/17 08:27:59;;;;;;;6.85;3.85;;;23.70;84.30;;;;;;5008010;28;20145;-71
2023/07/17 08:30:25;;;;;;;7.47;4.45;;;23.70;84.30;;;;;;5008219;28;20108;-71
2023/07/17 08:32:51;;;;;;;7.47;3.53;;;23.70;83.40;;;;;;5009300;28;20488;-71
2023/07/17 08:35:17;;;;;;;9.90;3.80;;;23.70;82.40;;;;;;5009911;28;20476;-71
2023/07/17 08:37:42;;;;;;;7.07;3.83;;;23.70;82.20;;;;;;4993388;28;20022;-71
2023/07/17 08:40:10;;;;;;;7.03;3.90;;;23.70;81.50;;;;;;5008480;28;20030;-71
2023/07/17 08:42:37;;;;;;;9.10;3.80;;;23.70;82.10;;;;;;5009478;28;20044;-71
2023/07/17 08:45:04;;;;;;;10.20;4.13;;;23.80;82.70;;;;;;5007781;28;20026;-71
2023/07/17 08:47:30;;;;;;;6.25;3.85;;;23.80;82.90;;;;;;5007122;28;20038;-71
2023/07/17 08:49:58;;;;;;;6.57;3.20;;;23.90;81.30;;;;;;5009694;28;20555;-71
2023/07/17 08:52:27;;;;;;;5.75;3.75;;;23.90;80.70;;;;;;5009868;28;20490;-71
2023/07/17 08:54:52;;;;;;;5.88;3.08;;;24.00;80.90;;;;;;5010305;28;20028;-71
2023/07/17 08:57:19;;;;;;;7.45;3.88;;;24.00;81.60;;;;;;5009037;28;20124;-71
2023/07/17 08:59:45;;;;;;;5.97;3.13;;;24.10;80.70;;;;;;5006453;28;20033;-71
2023/07/17 09:02:11;;;;;;;3.67;2.72;;;24.10;80.10;;;;;;5009019;28;20033;-70
2023/07/17 09:04:36;;;;;;;7.47;3.22;;;24.20;79.70;;;;;;4993945;28;20515;-71
2023/07/17 09:07:03;;;;;;;5.55;3.17;;;24.30;79.30;;;;;;4991097;28;20044;-71
2023/07/17 09:09:28;;;;;;;5.82;3.40;;;24.40;78.70;;;;;;5010270;28;20536;-71
2023/07/17 09:12:10;;;;;;;7.07;3.00;;;24.60;78.00;;;;;;5009773;28;20045;-70
2023/07/17 09:14:36;;;;;;;11.27;4.18;;;24.70;76.60;;;;;;4988622;28;20076;-71
2023/07/17 09:17:04;;;;;;;6.75;3.47;;;24.90;77.20;;;;;;5007361;28;20028;-71
2023/07/17 09:19:34;;;;;;;8.38;3.53;;;25.00;76.90;;;;;;5009646;28;20032;-71
2023/07/17 09:22:05;;;;;;;4.63;3.20;;;25.00;77.00;;;;;;5009476;28;20034;-71
2023/07/17 09:24:36;;;;;;;7.80;3.50;;;25.10;76.90;;;;;;5007276;28;20037;-71
2023/07/17 09:27:06;;;;;;;8.40;3.30;;;25.10;76.10;;;;;;5007769;28;20404;-71
2023/07/17 09:29:32;;;;;;;6.70;3.35;;;25.20;75.50;;;;;;5006398;28;20503;-71
2023/07/17 09:32:14;;;;;;;7.68;3.58;;;25.20;75.40;;;;;;5009649;28;20010;-71
2023/07/17 09:34:40;;;;;;;6.68;3.67;;;25.30;74.90;;;;;;5008114;28;20163;-71
2023/07/17 09:37:09;;;;;;;4.97;3.22;;;25.40;75.00;;;;;;5009073;28;20471;-71
2023/07/17 09:39:38;;;;;;;8.50;3.58;;;25.50;74.30;;;;;;5006781;28;20365;-71
2023/07/17 09:42:04;;;;;;;5.63;3.42;;;25.60;74.00;;;;;;5007333;28;20434;-71
2023/07/17 09:44:32;;;;;;;7.05;3.83;;;25.60;73.90;;;;;;5010199;28;20030;-72
2023/07/17 09:46:58;;;;;;;7.72;4.03;;;25.70;73.30;;;;;;5011630;28;20048;-72
2023/07/17 09:49:24;;;;;;;6.13;3.67;;;25.70;73.20;;;;;;5012479;28;20022;-73
2023/07/17 09:51:50;;;;;;;6.15;2.92;;;25.70;72.00;;;;;;4995576;28;20030;-72
2023/07/17 09:54:17;;;;;;;5.35;3.13;;;25.70;71.30;;;;;;5011950;28;20103;-72
2023/07/17 09:56:44;;;;;;;6.68;3.47;;;25.80;71.00;;;;;;5012663;28;20322;-72
2023/07/17 09:59:20;;;;;;;5.97;2.83;;;25.80;71.30;;;;;;4994823;28;20113;-72
2023/07/17 10:01:48;;;;;;;5.20;3.10;;;25.90;70.40;;;;;;5012513;28;20033;-72
2023/07/17 10:04:21;;;;;;;5.00;3.22;;;26.10;69.00;;;;;;5012799;28;20022;-72
2023/07/17 10:06:48;;;;;;;6.63;3.60;;;26.10;67.50;;;;;;5012804;28;20036;-73
2023/07/17 10:09:17;;;;;;;5.07;3.05;;;26.20;67.60;;;;;;4994497;28;20350;-73
2023/07/17 10:11:44;;;;;;;5.05;3.20;;;26.20;67.10;;;;;;5012534;28;20021;-71
2023/07/17 10:14:10;;;;;;;5.32;3.17;;;26.20;67.00;;;;;;5012402;28;20081;-72
2023/07/17 10:16:36;;;;;;;5.75;3.50;;;26.30;67.20;;;;;;4998113;28;20508;-72
2023/07/17 10:19:02;;;;;;;6.70;3.35;;;26.30;67.20;;;;;;5012516;28;20076;-72
2023/07/17 10:21:28;;;;;;;6.28;3.33;;;26.30;66.30;;;;;;5012516;28;20025;-70
2023/07/17 10:24:04;;;;;;;8.00;3.90;;;26.20;66.40;;;;;;5012134;28;20018;-72
2023/07/17 10:26:30;;;;;;;5.22;3.05;;;26.20;66.90;;;;;;5012639;28;20026;-71
2023/07/17 10:28:57;;;;;;;8.40;3.83;;;26.10;66.70;;;;;;5011739;28;20026;-71
2023/07/17 10:31:24;;;;;;;5.40;3.05;;;26.10;67.00;;;;;;4993673;28;20044;-76
2023/07/17 10:33:58;;;;;;;4.72;3.67;;;26.30;66.80;;;;;;4988818;28;20041;-76
2023/07/17 10:36:36;;;;;;;5.35;3.20;;;26.30;67.10;;;;;;5005155;28;20034;-76
2023/07/17 10:39:04;;;;;;;4.85;2.85;;;26.40;66.40;;;;;;5004007;28;20035;-75
2023/07/17 10:41:30;;;;;;;5.43;3.28;;;26.50;66.40;;;;;;5007476;28;20058;-76
2023/07/17 10:44:06;;;;;;;7.50;4.00;;;26.50;66.00;;;;;;5006930;28;20444;-76
2023/07/17 10:46:34;;;;;;;6.28;3.25;;;26.60;65.70;;;;;;5006299;28;20034;-75
2023/07/17 10:49:11;;;;;;;6.90;3.40;;;26.60;65.20;;;;;;5005627;28;20380;-77
2023/07/17 10:51:42;;;;;;;10.85;3.53;;;26.60;65.40;;;;;;5005922;28;20025;-77
2023/07/17 10:54:07;;;;;;;5.60;3.25;;;26.60;65.50;;;;;;5009307;28;20030;-77
2023/07/17 10:56:34;;;;;;;6.47;3.45;;;26.70;65.70;;;;;;5008294;28;20026;-77
2023/07/17 10:58:59;;;;;;;4.75;3.22;;;26.70;66.10;;;;;;4993514;28;20032;-77
2023/07/17 11:01:25;;;;;;;5.47;3.25;;;26.80;65.50;;;;;;5013150;28;20026;-77
2023/07/17 11:03:53;;;;;;;6.00;3.80;;;26.80;65.40;;;;;;5012869;28;20045;-77
2023/07/17 11:06:19;;;;;;;4.55;3.15;;;26.80;65.10;;;;;;5011125;28;20023;-77
2023/07/17 11:08:49;;;;;;;5.07;3.20;;;26.90;65.60;;;;;;5012181;28;20037;-76
2023/07/17 11:11:15;;;;;;;5.75;4.18;;;26.90;65.10;;;;;;5006949;28;20057;-77
2023/07/17 11:13:44;;;;;;;5.85;3.28;;;26.90;65.60;;;;;;5010381;28;20646;-76
2023/07/17 11:16:11;;;;;;;5.00;3.05;;;26.90;65.30;;;;;;4998626;28;20392;-77
2023/07/17 11:18:43;;;;;;;6.90;4.15;;;26.90;65.20;;;;;;5012226;28;20030;-76
2023/07/17 11:21:09;;;;;;;8.05;3.60;;;26.90;66.10;;;;;;5006883;28;20551;-76
2023/07/17 11:23:35;;;;;;;5.68;3.42;;;26.90;65.80;;;;;;5013430;28;20030;-76
2023/07/17 11:26:03;;;;;;;6.25;3.67;;;26.90;65.30;;;;;;5000642;28;20080;-76
2023/07/17 11:28:29;;;;;;;6.85;3.70;;;27.00;65.20;;;;;;4995591;28;20048;-76
2023/07/17 11:30:55;;;;;;;6.30;3.50;;;26.90;64.90;;;;;;4993176;28;20072;-76
2023/07/17 11:33:21;;;;;;;5.90;3.83;;;27.00;65.30;;;;;;4993916;28;20054;-77
2023/07/17 11:35:49;;;;;;;7.95;3.50;;;26.90;65.00;;;;;;5015331;28;20033;-76
2023/07/17 11:38:18;;;;;;;5.43;3.38;;;26.90;65.50;;;;;;5011258;28;20428;-76
2023/07/17 11:41:03;;;;;;;5.38;3.55;;;26.90;65.60;;;;;;4991062;28;20041;-77
2023/07/17 11:43:33;;;;;;;6.68;3.50;;;26.90;65.70;;;;;;5007918;28;20025;-76
2023/07/17 11:46:03;;;;;;;6.95;3.20;;;26.90;65.50;;;;;;5001350;28;20069;-76
2023/07/17 11:48:31;;;;;;;5.25;3.65;;;26.90;65.50;;;;;;5009336;28;20041;-74
2023/07/17 11:50:58;;;;;;;10.93;4.00;;;26.90;65.40;;;;;;5002078;28;20034;-72
2023/07/17 11:53:23;;;;;;;5.07;3.35;;;26.90;65.10;;;;;;5009100;28;20064;-74
2023/07/17 11:55:50;;;;;;;6.07;4.15;;;26.90;65.50;;;;;;4999560;28;20037;-76
2023/07/17 11:58:16;;;;;;;8.05;3.40;;;26.80;65.20;;;;;;4988465;28;21114;-76
2023/07/17 12:00:43;;;;;;;6.97;3.85;;;26.90;65.40;;;;;;5007205;28;20105;-75
2023/07/17 12:03:10;;;;;;;7.43;4.00;;;26.90;65.60;;;;;;5006118;28;20393;-76
2023/07/17 12:05:36;;;;;;;5.63;3.30;;;26.90;65.80;;;;;;4986757;28;20037;-73
2023/07/17 12:08:02;;;;;;;6.40;3.20;;;26.90;65.30;;;;;;5005000;28;20041;-77
2023/07/17 12:10:27;;;;;;;5.53;3.38;;;26.90;65.00;;;;;;5008547;28;20030;-77
2023/07/17 12:12:53;;;;;;;7.70;3.70;;;26.90;65.60;;;;;;5009347;28;20539;-76
2023/07/17 12:15:19;;;;;;;4.40;3.60;;;27.00;65.90;;;;;;5007798;28;20096;-76
2023/07/17 12:17:44;;;;;;;9.20;4.10;;;27.00;65.80;;;;;;5004725;28;20030;-78
2023/07/17 12:20:10;;;;;;;6.22;3.90;;;27.10;66.10;;;;;;5007133;28;20019;-76
2023/07/17 12:22:36;;;;;;;8.90;3.83;;;27.10;66.90;;;;;;5004544;28;20037;-75
2023/07/17 12:25:02;;;;;;;7.70;4.15;;;27.20;66.50;;;;;;5008765;28;20492;-76
2023/07/17 12:27:28;;;;;;;8.55;3.88;;;27.20;66.30;;;;;;5006956;28;20022;-77
2023/07/17 12:29:54;;;;;;;6.35;4.15;;;27.30;66.10;;;;;;5000775;28;20037;-76
2023/07/17 12:32:19;;;;;;;7.20;3.40;;;27.30;66.30;;;;;;4987000;28;20117;-77
2023/07/17 12:34:45;;;;;;;7.65;4.07;;;27.30;66.00;;;;;;5001359;28;20026;-77
2023/07/17 12:37:10;;;;;;;6.80;3.75;;;27.30;65.60;;;;;;5010780;28;20500;-75
2023/07/17 12:39:36;;;;;;;8.38;4.10;;;27.30;66.20;;;;;;5003182;28;20197;-76
2023/07/17 12:42:02;;;;;;;7.47;3.83;;;27.40;66.30;;;;;;5007538;28;20030;-77
2023/07/17 12:44:29;;;;;;;7.35;4.15;;;27.40;66.10;;;;;;5006019;28;20380;-76